createdAt,value
2023-03-29T04:00:43.681Z,95.81
2023-03-29T04:01:44.509Z,95.40
2023-03-29T04:02:44.528Z,95.29
2023-03-29T04:03:44.518Z,94.98
2023-03-29T04:04:44.435Z,94.89
2023-03-29T04:05:44.452Z,94.78
2023-03-29T04:06:44.435Z,95.81
2023-03-29T04:07:44.459Z,95.50
2023-03-29T04:08:44.404Z,95.50
2023-03-29T04:09:44.390Z,95.19
2023-03-29T04:10:44.381Z,94.73
2023-03-29T04:11:44.393Z,95.40
2023-03-29T04:12:44.385Z,95.81
2023-03-29T04:13:44.367Z,96.44
2023-03-29T04:14:44.336Z,95.92
2023-03-29T04:15:44.358Z,95.81
2023-03-29T04:16:44.314Z,95.61
2023-03-29T04:17:44.424Z,95.19
2023-03-29T04:18:44.436Z,95.81
2023-03-29T04:19:44.374Z,95.40
2023-03-29T04:20:44.258Z,95.09
2023-03-29T04:21:44.259Z,95.61
2023-03-29T04:22:44.301Z,95.36
2023-03-29T04:23:44.244Z,94.73
2023-03-29T04:24:44.243Z,95.15
2023-03-29T04:25:44.259Z,95.15
2023-03-29T04:26:44.198Z,94.94
2023-03-29T04:27:44.230Z,94.94
2023-03-29T04:28:44.187Z,94.43
2023-03-29T04:29:44.242Z,94.01
2023-03-29T04:30:44.168Z,94.94
2023-03-29T04:31:44.249Z,94.32
2023-03-29T04:32:44.168Z,94.22
2023-03-29T04:33:44.151Z,94.01
2023-03-29T04:34:44.150Z,94.63
2023-03-29T04:35:44.123Z,94.73
2023-03-29T04:36:44.144Z,94.53
2023-03-29T04:37:44.115Z,94.73
2023-03-29T04:38:47.367Z,93.91
2023-03-29T04:39:44.108Z,94.53
2023-03-29T04:40:44.335Z,94.63
2023-03-29T04:41:44.119Z,94.22
2023-03-29T04:42:44.100Z,94.22
2023-03-29T04:43:44.110Z,94.84
2023-03-29T04:44:44.038Z,94.73
2023-03-29T04:45:44.098Z,94.12
2023-03-29T04:46:44.162Z,93.29
2023-03-29T04:47:44.135Z,94.28
2023-03-29T04:48:43.988Z,93.24
2023-03-29T04:49:43.999Z,93.76
2023-03-29T04:50:43.957Z,94.38
2023-03-29T04:51:43.965Z,94.07
2023-03-29T04:52:43.949Z,94.48
2023-03-29T04:53:43.946Z,94.73
2023-03-29T04:54:43.912Z,95.77
2023-03-29T04:55:43.908Z,95.46
2023-03-29T04:56:44.517Z,94.22
2023-03-29T04:57:43.900Z,94.43
2023-03-29T04:58:43.870Z,94.43
2023-03-29T04:59:43.867Z,94.53
2023-03-29T05:00:43.867Z,92.83
2023-03-29T05:01:43.851Z,93.14
2023-03-29T05:02:43.875Z,93.76
2023-03-29T05:03:43.888Z,92.93
2023-03-29T05:04:43.859Z,92.93
2023-03-29T05:05:43.803Z,93.14
2023-03-29T05:06:43.816Z,92.21
2023-03-29T05:07:43.795Z,92.21
2023-03-29T05:08:43.772Z,92.52
2023-03-29T05:09:43.786Z,92.42
2023-03-29T05:10:43.742Z,91.59
2023-03-29T05:11:43.743Z,92.21
2023-03-29T05:12:43.727Z,92.52
2023-03-29T05:13:43.710Z,92.32
2023-03-29T05:14:43.691Z,92.32
2023-03-29T05:15:43.693Z,91.96
2023-03-29T05:16:43.701Z,91.75
2023-03-29T05:17:43.716Z,91.75
2023-03-29T05:18:43.673Z,92.89
2023-03-29T05:19:43.638Z,93.62
2023-03-29T05:20:43.624Z,92.38
2023-03-29T05:21:45.430Z,92.52
2023-03-29T05:22:43.611Z,93.62
2023-03-29T05:23:43.636Z,92.52
2023-03-29T05:24:43.616Z,92.38
2023-03-29T05:25:43.586Z,93.66
2023-03-29T05:26:43.576Z,93.72
2023-03-29T05:27:43.592Z,93.55
2023-03-29T05:28:43.570Z,92.79
2023-03-29T05:29:43.537Z,92.99
2023-03-29T05:30:43.521Z,92.38
2023-03-29T05:31:43.624Z,93.10
2023-03-29T05:32:43.565Z,92.48
2023-03-29T05:33:43.516Z,92.27
2023-03-29T05:34:43.576Z,93.20
2023-03-29T05:35:43.496Z,91.55
2023-03-29T05:36:43.536Z,92.07
2023-03-29T05:37:43.484Z,91.96
2023-03-29T05:38:43.439Z,91.65
2023-03-29T05:39:43.432Z,91.75
2023-03-29T05:40:43.413Z,92.02
2023-03-29T05:41:43.440Z,92.02
2023-03-29T05:42:43.414Z,92.13
2023-03-29T05:43:43.409Z,93.16
2023-03-29T05:44:43.384Z,92.13
2023-03-29T05:45:43.445Z,92.02
2023-03-29T05:46:43.375Z,92.54
2023-03-29T05:47:43.423Z,92.33
2023-03-29T05:48:43.352Z,91.92
2023-03-29T05:49:43.332Z,92.64
2023-03-29T05:50:44.423Z,91.92
2023-03-29T05:51:43.328Z,91.20
2023-03-29T05:52:43.332Z,90.53
2023-03-29T05:53:43.351Z,90.68
2023-03-29T05:54:43.272Z,90.68
2023-03-29T05:55:43.262Z,91.05
2023-03-29T05:56:43.288Z,91.26
2023-03-29T05:57:43.259Z,91.36
2023-03-29T05:58:43.264Z,92.50
2023-03-29T05:59:43.260Z,91.67
2023-03-29T06:00:43.276Z,91.56
2023-03-29T06:01:43.219Z,92.40
2023-03-29T06:02:43.357Z,93.53
2023-03-29T06:03:43.398Z,93.53
2023-03-29T06:04:43.226Z,93.53
2023-03-29T06:05:43.181Z,93.53
2023-03-29T06:06:43.155Z,93.32
2023-03-29T06:07:43.147Z,93.32
2023-03-29T06:08:43.142Z,93.84
2023-03-29T06:09:43.136Z,93.53
2023-03-29T06:10:43.115Z,93.73
2023-03-29T06:11:43.145Z,93.43
2023-03-29T06:12:43.118Z,93.01
2023-03-29T06:13:43.100Z,93.12
2023-03-29T06:14:43.080Z,92.80
2023-03-29T06:15:43.069Z,92.76
2023-03-29T06:16:43.096Z,91.94
2023-03-29T06:17:43.134Z,92.76
2023-03-29T06:18:43.072Z,92.46
2023-03-29T06:19:43.018Z,92.14
2023-03-29T06:20:43.023Z,92.55
2023-03-29T06:21:42.987Z,92.66
2023-03-29T06:22:42.997Z,91.73
2023-03-29T06:23:42.976Z,91.73
2023-03-29T06:24:42.985Z,92.66
2023-03-29T06:25:42.943Z,93.38
2023-03-29T06:26:42.964Z,93.59
2023-03-29T06:27:42.960Z,94.00
2023-03-29T06:28:42.962Z,94.21
2023-03-29T06:29:42.932Z,94.52
2023-03-29T06:30:42.931Z,95.03
2023-03-29T06:31:42.980Z,95.45
2023-03-29T06:32:42.936Z,96.69
2023-03-29T06:33:42.863Z,96.58
2023-03-29T06:34:42.922Z,97.51
2023-03-29T06:35:42.879Z,96.89
2023-03-29T06:36:42.854Z,97.41
2023-03-29T06:37:42.832Z,98.02
2023-03-29T06:38:42.896Z,98.75
2023-03-29T06:39:42.817Z,98.54
2023-03-29T06:40:42.795Z,98.96
2023-03-29T06:41:42.793Z,99.26
2023-03-29T06:42:42.794Z,98.75
2023-03-29T06:43:42.772Z,99.37
2023-03-29T06:44:42.755Z,99.47
2023-03-29T06:45:42.749Z,99.99
2023-03-29T06:46:42.746Z,99.88
2023-03-29T06:47:42.780Z,99.99
2023-03-29T06:48:42.736Z,99.68
2023-03-29T06:49:42.712Z,98.85
2023-03-29T06:50:42.687Z,98.54
2023-03-29T06:51:42.692Z,98.23
2023-03-29T06:52:42.691Z,98.44
2023-03-29T06:53:42.699Z,98.50
2023-03-29T06:54:42.719Z,99.32
2023-03-29T06:55:42.636Z,99.11
2023-03-29T06:56:42.857Z,97.26
2023-03-29T06:57:42.620Z,97.52
2023-03-29T06:58:42.691Z,97.21
2023-03-29T06:59:42.611Z,96.28
2023-03-29T07:00:42.588Z,96.39
2023-03-29T07:01:42.632Z,96.28
2023-03-29T07:02:42.603Z,96.39
2023-03-29T07:03:44.130Z,96.49
2023-03-29T07:04:42.644Z,95.77
2023-03-29T07:05:42.621Z,95.87
2023-03-29T07:06:42.517Z,96.24
2023-03-29T07:07:42.574Z,95.42
2023-03-29T07:08:42.502Z,95.93
2023-03-29T07:09:42.510Z,96.50
2023-03-29T07:10:42.741Z,95.17
2023-03-29T07:11:42.477Z,93.73
2023-03-29T07:12:42.468Z,93.73
2023-03-29T07:13:42.694Z,94.03
2023-03-29T07:14:43.185Z,93.93
2023-03-29T07:15:42.434Z,93.73
2023-03-29T07:16:42.496Z,93.41
2023-03-29T07:17:42.439Z,93.93
2023-03-29T07:18:42.396Z,94.09
2023-03-29T07:19:42.386Z,94.30
2023-03-29T07:20:42.419Z,93.99
2023-03-29T07:21:42.358Z,92.34
2023-03-29T07:22:42.359Z,93.16
2023-03-29T07:23:42.420Z,93.74
2023-03-29T07:24:42.342Z,92.92
2023-03-29T07:25:42.326Z,93.02
2023-03-29T07:26:52.250Z,92.20
2023-03-29T07:27:42.312Z,93.12
2023-03-29T07:28:42.275Z,93.59
2023-03-29T07:29:42.611Z,92.46
2023-03-29T07:30:42.277Z,90.61
2023-03-29T07:31:42.243Z,90.81
2023-03-29T07:32:42.370Z,91.23
2023-03-29T07:33:42.264Z,91.33
2023-03-29T07:34:42.217Z,91.95
2023-03-29T07:35:42.255Z,92.25
2023-03-29T07:36:42.204Z,92.25
2023-03-29T07:37:42.197Z,92.77
2023-03-29T07:38:42.171Z,91.53
2023-03-29T07:39:42.150Z,91.13
2023-03-29T07:40:42.180Z,91.39
2023-03-29T07:41:42.163Z,91.39
2023-03-29T07:42:42.137Z,90.78
2023-03-29T07:43:42.123Z,91.70
2023-03-29T07:44:42.127Z,92.32
2023-03-29T07:45:42.148Z,92.01
2023-03-29T07:46:42.081Z,91.80
2023-03-29T07:47:42.110Z,91.70
2023-03-29T07:48:42.083Z,91.91
2023-03-29T07:49:42.051Z,90.88
2023-03-29T07:50:42.045Z,91.91
2023-03-29T07:51:42.011Z,90.98
2023-03-29T07:52:42.048Z,91.49
2023-03-29T07:53:41.999Z,92.52
2023-03-29T07:54:42.002Z,90.98
2023-03-29T07:55:41.969Z,92.01
2023-03-29T07:56:42.040Z,92.32
2023-03-29T07:57:41.985Z,91.86
2023-03-29T07:58:41.942Z,91.14
2023-03-29T07:59:41.968Z,91.35
2023-03-29T08:00:41.969Z,91.55
2023-03-29T08:01:41.930Z,90.88
2023-03-29T08:02:41.926Z,91.70
2023-03-29T08:03:41.914Z,91.66
2023-03-29T08:04:41.909Z,91.66
2023-03-29T08:05:42.278Z,91.04
2023-03-29T08:06:41.884Z,91.55
2023-03-29T08:07:41.854Z,91.41
2023-03-29T08:08:41.857Z,91.20
2023-03-29T08:09:41.846Z,89.97
2023-03-29T08:10:41.851Z,91.31
2023-03-29T08:11:41.832Z,91.37
2023-03-29T08:12:41.814Z,89.76
2023-03-29T08:13:41.817Z,90.38
2023-03-29T08:14:41.805Z,90.18
2023-03-29T08:15:41.764Z,90.69
2023-03-29T08:16:41.826Z,90.38
2023-03-29T08:17:41.769Z,90.59
2023-03-29T08:18:41.786Z,91.31
2023-03-29T08:19:41.728Z,91.06
2023-03-29T08:20:41.768Z,91.37
2023-03-29T08:21:41.708Z,91.94
2023-03-29T08:22:41.706Z,89.89
2023-03-29T08:23:41.716Z,89.99
2023-03-29T08:24:41.705Z,89.48
2023-03-29T08:25:41.703Z,89.07
2023-03-29T08:26:41.659Z,88.45
2023-03-29T08:27:41.644Z,88.62
2023-03-29T08:28:41.628Z,87.79
2023-03-29T08:29:41.681Z,88.00
2023-03-29T08:30:41.643Z,88.10
2023-03-29T08:31:41.636Z,88.37
2023-03-29T08:32:41.632Z,87.30
2023-03-29T08:33:41.573Z,87.20
2023-03-29T08:34:41.561Z,85.97
2023-03-29T08:35:41.567Z,86.38
2023-03-29T08:36:41.585Z,85.97
2023-03-29T08:37:41.555Z,86.28
2023-03-29T08:38:41.538Z,87.61
2023-03-29T08:39:41.501Z,86.28
2023-03-29T08:40:41.506Z,85.91
2023-03-29T08:41:41.502Z,86.87
2023-03-29T08:42:41.484Z,88.00
2023-03-29T08:43:41.482Z,88.17
2023-03-29T08:44:41.454Z,87.04
2023-03-29T08:45:41.452Z,87.14
2023-03-29T08:46:41.523Z,87.55
2023-03-29T08:47:41.482Z,86.66
2023-03-29T08:48:41.431Z,87.59
2023-03-29T08:49:41.440Z,88.51
2023-03-29T08:50:41.401Z,87.85
2023-03-29T08:51:41.400Z,86.73
2023-03-29T08:52:41.374Z,87.34
2023-03-29T08:53:41.378Z,87.85
2023-03-29T08:54:41.363Z,86.52
2023-03-29T08:55:41.356Z,86.22
2023-03-29T08:56:41.360Z,87.30
2023-03-29T08:57:41.335Z,89.25
2023-03-29T08:58:41.323Z,86.58
2023-03-29T08:59:41.300Z,86.79
2023-03-29T09:00:41.316Z,86.48
2023-03-29T09:01:41.317Z,87.16
2023-03-29T09:02:41.349Z,85.31
2023-03-29T09:03:41.301Z,84.70
2023-03-29T09:04:41.258Z,84.36
2023-03-29T09:05:41.254Z,84.15
2023-03-29T09:06:41.253Z,84.77
2023-03-29T09:07:41.244Z,84.56
2023-03-29T09:08:41.217Z,85.28
2023-03-29T09:09:41.203Z,83.68
2023-03-29T09:10:41.207Z,84.46
2023-03-29T09:11:41.170Z,84.46
2023-03-29T09:12:41.713Z,82.71
2023-03-29T09:13:41.271Z,84.56
2023-03-29T09:14:41.144Z,84.05
2023-03-29T09:15:41.160Z,84.36
2023-03-29T09:16:41.171Z,84.15
2023-03-29T09:17:41.159Z,83.64
2023-03-29T09:18:41.125Z,84.15
2023-03-29T09:19:41.119Z,84.46
2023-03-29T09:20:41.080Z,83.54
2023-03-29T09:21:41.069Z,83.23
2023-03-29T09:22:41.059Z,84.36
2023-03-29T09:23:41.065Z,84.22
2023-03-29T09:24:41.054Z,84.72
2023-03-29T09:25:52.528Z,83.87
2023-03-29T09:26:41.014Z,83.56
2023-03-29T09:27:41.017Z,83.22
2023-03-29T09:28:41.003Z,82.12
2023-03-29T09:29:40.982Z,79.83
2023-03-29T09:30:40.976Z,77.83
2023-03-29T09:31:41.058Z,80.32
2023-03-29T09:32:41.091Z,82.26
2023-03-29T09:33:40.980Z,82.46
2023-03-29T09:34:40.939Z,80.52
2023-03-29T09:35:40.941Z,80.11
2023-03-29T09:36:40.908Z,80.21
2023-03-29T09:37:40.917Z,78.75
2023-03-29T09:38:40.920Z,77.93
2023-03-29T09:39:40.873Z,77.35
2023-03-29T09:40:40.904Z,79.29
2023-03-29T09:41:40.849Z,78.72
2023-03-29T09:42:40.875Z,81.07
2023-03-29T09:43:40.843Z,79.74
2023-03-29T09:44:40.825Z,79.64
2023-03-29T09:45:40.849Z,81.88
2023-03-29T09:46:40.803Z,79.47
2023-03-29T09:47:40.883Z,81.27
2023-03-29T09:48:40.802Z,80.66
2023-03-29T09:49:40.874Z,81.07
2023-03-29T09:50:40.832Z,80.46
2023-03-29T09:51:40.767Z,80.05
2023-03-29T09:52:40.806Z,81.74
2023-03-29T09:53:40.737Z,79.50
2023-03-29T09:54:40.707Z,79.53
2023-03-29T09:55:40.705Z,79.33
2023-03-29T09:56:40.801Z,79.91
2023-03-29T09:57:40.692Z,78.92
2023-03-29T09:58:40.719Z,79.64
2023-03-29T09:59:40.659Z,81.27
2023-03-29T10:00:40.644Z,80.15
2023-03-29T10:01:40.696Z,79.53
2023-03-29T10:02:40.667Z,80.80
2023-03-29T10:03:40.617Z,80.19
2023-03-29T10:04:40.664Z,81.58
2023-03-29T10:05:40.585Z,82.09
2023-03-29T10:06:40.578Z,81.03
2023-03-29T10:07:40.585Z,78.92
2023-03-29T10:08:40.587Z,78.52
2023-03-29T10:09:40.543Z,79.43
2023-03-29T10:10:40.578Z,80.35
2023-03-29T10:11:40.541Z,80.01
2023-03-29T10:12:40.539Z,80.42
2023-03-29T10:13:40.516Z,81.60
2023-03-29T10:14:40.478Z,78.75
2023-03-29T10:15:40.479Z,80.48
2023-03-29T10:16:40.613Z,80.99
2023-03-29T10:17:40.559Z,80.42
2023-03-29T10:18:40.485Z,84.09
2023-03-29T10:19:40.433Z,82.81
2023-03-29T10:20:40.435Z,81.62
2023-03-29T10:21:40.403Z,82.37
2023-03-29T10:22:40.389Z,84.31
2023-03-29T10:23:40.396Z,86.05
2023-03-29T10:24:40.366Z,85.24
2023-03-29T10:25:42.332Z,86.22
2023-03-29T10:26:40.385Z,85.10
2023-03-29T10:27:40.358Z,83.87
2023-03-29T10:28:40.358Z,82.48
2023-03-29T10:29:40.316Z,83.91
2023-03-29T10:30:40.348Z,84.48
2023-03-29T10:31:40.308Z,84.58
2023-03-29T10:32:40.360Z,85.44
2023-03-29T10:33:40.308Z,85.96
2023-03-29T10:34:40.305Z,84.63
2023-03-29T10:35:40.337Z,85.75
2023-03-29T10:36:40.314Z,86.05
2023-03-29T10:37:40.250Z,86.22
2023-03-29T10:38:40.228Z,86.38
2023-03-29T10:39:40.203Z,87.00
2023-03-29T10:40:40.196Z,87.37
2023-03-29T10:41:40.203Z,88.39
2023-03-29T10:42:40.172Z,89.04
2023-03-29T10:43:40.264Z,90.47
2023-03-29T10:44:40.174Z,90.62
2023-03-29T10:45:40.158Z,92.46
2023-03-29T10:46:40.398Z,92.30
2023-03-29T10:47:40.156Z,93.22
2023-03-29T10:48:40.122Z,94.45
2023-03-29T10:49:40.133Z,93.22
2023-03-29T10:50:40.095Z,93.16
2023-03-29T10:51:40.069Z,93.63
2023-03-29T10:52:40.081Z,94.45
2023-03-29T10:53:40.079Z,93.01
2023-03-29T10:54:40.034Z,93.52
2023-03-29T10:55:40.053Z,94.34
2023-03-29T10:56:40.281Z,94.14
2023-03-29T10:57:40.080Z,94.14
2023-03-29T10:58:40.026Z,92.19
2023-03-29T10:59:40.018Z,92.10
2023-03-29T11:00:39.980Z,92.36
2023-03-29T11:01:40.024Z,90.56
2023-03-29T11:02:40.020Z,92.50
2023-03-29T11:03:40.092Z,92.30
2023-03-29T11:04:40.678Z,92.10
2023-03-29T11:05:39.918Z,92.77
2023-03-29T11:06:39.905Z,92.05
2023-03-29T11:07:39.910Z,92.46
2023-03-29T11:08:39.946Z,92.01
2023-03-29T11:09:39.876Z,89.97
2023-03-29T11:10:39.925Z,91.50
2023-03-29T11:11:39.848Z,89.90
2023-03-29T11:12:39.842Z,90.31
2023-03-29T11:13:39.852Z,91.23
2023-03-29T11:14:39.828Z,91.78
2023-03-29T11:15:39.890Z,92.19
2023-03-29T11:16:39.801Z,93.43
2023-03-29T11:17:39.847Z,91.99
2023-03-29T11:18:39.802Z,91.83
2023-03-29T11:19:39.791Z,92.34
2023-03-29T11:20:39.758Z,92.65
2023-03-29T11:21:39.817Z,92.96
2023-03-29T11:22:39.720Z,93.84
2023-03-29T11:23:39.740Z,93.93
2023-03-29T11:24:39.746Z,93.06
2023-03-29T11:25:39.700Z,94.29
2023-03-29T11:26:39.676Z,95.72
2023-03-29T11:27:39.729Z,95.78
2023-03-29T11:28:39.705Z,94.08
2023-03-29T11:29:39.670Z,95.21
2023-03-29T11:30:39.632Z,95.82
2023-03-29T11:31:39.698Z,96.64
2023-03-29T11:32:39.649Z,97.41
2023-03-29T11:33:39.621Z,97.31
2023-03-29T11:34:39.602Z,96.19
2023-03-29T11:35:39.655Z,94.90
2023-03-29T11:36:39.577Z,95.31
2023-03-29T11:37:39.556Z,96.23
2023-03-29T11:38:39.597Z,95.92
2023-03-29T11:39:39.556Z,96.29
2023-03-29T11:40:39.523Z,95.06
2023-03-29T11:41:39.545Z,93.63
2023-03-29T11:42:39.522Z,94.24
2023-03-29T11:43:39.499Z,93.22
2023-03-29T11:44:39.511Z,92.87
2023-03-29T11:45:39.476Z,94.15
2023-03-29T11:46:39.503Z,91.61
2023-03-29T11:47:39.484Z,90.86
2023-03-29T11:48:39.465Z,92.61
2023-03-29T11:49:39.460Z,87.77
2023-03-29T11:50:39.437Z,85.57
2023-03-29T11:51:39.425Z,87.26
2023-03-29T11:52:39.392Z,87.98
2023-03-29T11:53:39.395Z,84.75
2023-03-29T11:54:39.401Z,83.84
2023-03-29T11:55:39.358Z,84.31
2023-03-29T11:56:39.383Z,82.74
2023-03-29T11:57:39.352Z,84.58
2023-03-29T11:58:39.409Z,84.47
2023-03-29T11:59:39.340Z,84.58
2023-03-29T12:00:39.307Z,83.86
2023-03-29T12:01:39.338Z,85.90
2023-03-29T12:02:39.410Z,86.61
2023-03-29T12:03:39.397Z,84.88
2023-03-29T12:04:39.275Z,83.25
2023-03-29T12:05:39.268Z,83.51
2023-03-29T12:06:39.249Z,83.62
2023-03-29T12:07:39.235Z,82.74
2023-03-29T12:08:39.241Z,84.67
2023-03-29T12:09:39.241Z,86.21
2023-03-29T12:10:39.195Z,84.92
2023-03-29T12:11:39.188Z,85.27
2023-03-29T12:12:39.164Z,85.21
2023-03-29T12:13:39.163Z,88.22
2023-03-29T12:14:39.164Z,85.06
2023-03-29T12:15:39.155Z,85.27
2023-03-29T12:16:39.195Z,86.76
2023-03-29T12:17:39.203Z,84.92
2023-03-29T12:18:39.100Z,85.22
2023-03-29T12:19:42.665Z,86.88
2023-03-29T12:20:39.102Z,85.55
2023-03-29T12:21:39.069Z,83.89
2023-03-29T12:22:39.072Z,81.23
2023-03-29T12:23:39.051Z,79.79
2023-03-29T12:24:39.053Z,78.56
2023-03-29T12:25:39.040Z,71.84
2023-03-29T12:26:39.012Z,75.55
2023-03-29T12:27:39.015Z,74.44
2023-03-29T12:28:39.002Z,72.92
2023-03-29T12:29:39.067Z,76.33
2023-03-29T12:30:38.981Z,71.67
2023-03-29T12:31:39.035Z,71.77
2023-03-29T12:32:39.034Z,70.79
2023-03-29T12:33:38.946Z,73.05
2023-03-29T12:34:38.948Z,74.61
2023-03-29T12:35:38.943Z,72.88
2023-03-29T12:36:38.920Z,70.96
2023-03-29T12:37:38.942Z,67.86
2023-03-29T12:38:38.904Z,69.62
2023-03-29T12:39:38.937Z,65.52
2023-03-29T12:40:38.871Z,68.65
2023-03-29T12:41:38.895Z,63.79
2023-03-29T12:42:38.859Z,66.18
2023-03-29T12:43:38.848Z,68.19
2023-03-29T12:44:38.837Z,70.66
2023-03-29T12:45:38.832Z,68.03
2023-03-29T12:46:38.849Z,69.44
2023-03-29T12:47:38.808Z,69.57
2023-03-29T12:48:38.788Z,70.25
2023-03-29T12:49:38.854Z,71.67
2023-03-29T12:50:38.759Z,70.86
2023-03-29T12:51:38.777Z,71.33
2023-03-29T12:52:38.741Z,70.32
2023-03-29T12:53:38.757Z,72.24
2023-03-29T12:54:38.725Z,70.29
2023-03-29T12:55:38.751Z,70.42
2023-03-29T12:56:38.725Z,72.01
2023-03-29T12:57:38.698Z,73.36
2023-03-29T12:58:38.690Z,72.96
2023-03-29T12:59:38.745Z,72.25
2023-03-29T13:00:38.751Z,74.98
2023-03-29T13:01:38.771Z,73.87
2023-03-29T13:02:38.904Z,73.57
2023-03-29T13:03:38.652Z,75.39
2023-03-29T13:04:38.612Z,75.86
2023-03-29T13:05:38.627Z,75.25
2023-03-29T13:06:38.590Z,73.46
2023-03-29T13:07:38.582Z,74.88
2023-03-29T13:08:38.563Z,76.31
2023-03-29T13:09:38.580Z,75.25
2023-03-29T13:10:38.537Z,73.93
2023-03-29T13:11:38.642Z,74.21
2023-03-29T13:12:38.513Z,72.99
2023-03-29T13:13:38.542Z,75.15
2023-03-29T13:14:38.570Z,75.19
2023-03-29T13:15:38.536Z,73.70
2023-03-29T13:16:38.557Z,76.64
2023-03-29T13:17:38.491Z,75.93
2023-03-29T13:18:38.467Z,75.43
2023-03-29T13:19:38.463Z,74.34
2023-03-29T13:20:38.456Z,75.36
2023-03-29T13:21:38.414Z,74.79
2023-03-29T13:22:38.415Z,78.85
2023-03-29T13:23:38.407Z,77.83
2023-03-29T13:24:38.397Z,76.51
2023-03-29T13:25:38.457Z,76.51
2023-03-29T13:26:38.365Z,77.29
2023-03-29T13:27:38.352Z,75.97
2023-03-29T13:28:38.348Z,76.75
2023-03-29T13:29:38.369Z,75.02
2023-03-29T13:30:38.347Z,75.63
2023-03-29T13:31:38.386Z,74.71
2023-03-29T13:32:38.367Z,75.26
2023-03-29T13:33:38.286Z,78.10
2023-03-29T13:34:38.298Z,75.43
2023-03-29T13:35:38.370Z,75.73
2023-03-29T13:36:38.272Z,75.52
2023-03-29T13:37:38.264Z,75.43
2023-03-29T13:38:38.248Z,73.97
2023-03-29T13:39:38.236Z,73.57
2023-03-29T13:40:38.231Z,74.38
2023-03-29T13:41:38.229Z,74.27
2023-03-29T13:42:38.206Z,73.63
2023-03-29T13:43:38.199Z,75.01
2023-03-29T13:44:38.195Z,73.76
2023-03-29T13:45:38.193Z,70.45
2023-03-29T13:46:38.254Z,71.77
2023-03-29T13:47:38.188Z,71.97
2023-03-29T13:48:38.211Z,72.72
2023-03-29T13:49:38.120Z,72.01
2023-03-29T13:50:38.143Z,73.93
2023-03-29T13:51:38.116Z,72.41
2023-03-29T13:52:38.117Z,71.67
2023-03-29T13:53:38.087Z,72.99
2023-03-29T13:54:38.083Z,71.26
2023-03-29T13:55:38.468Z,72.68
2023-03-29T13:56:38.122Z,72.34
2023-03-29T13:57:38.044Z,72.96
2023-03-29T13:58:38.044Z,74.38
2023-03-29T13:59:38.068Z,73.36
2023-03-29T14:00:38.050Z,75.19
2023-03-29T14:01:38.062Z,75.02
2023-03-29T14:02:38.069Z,77.15
2023-03-29T14:03:38.023Z,75.83
2023-03-29T14:04:38.028Z,76.03
2023-03-29T14:05:37.960Z,75.97
2023-03-29T14:06:37.944Z,75.97
2023-03-29T14:07:37.943Z,77.29
2023-03-29T14:08:37.910Z,77.12
2023-03-29T14:09:37.915Z,76.10
2023-03-29T14:10:37.921Z,77.63
2023-03-29T14:11:37.876Z,77.73
2023-03-29T14:12:41.158Z,78.04
2023-03-29T14:13:37.862Z,78.99
2023-03-29T14:14:42.643Z,79.60
2023-03-29T14:15:37.857Z,78.08
2023-03-29T14:16:37.980Z,80.21
2023-03-29T14:17:37.921Z,78.38
2023-03-29T14:18:37.821Z,78.11
2023-03-29T14:19:37.839Z,79.02
2023-03-29T14:20:37.789Z,79.19
2023-03-29T14:21:37.763Z,78.89
2023-03-29T14:22:37.797Z,79.70
2023-03-29T14:23:37.806Z,79.74
2023-03-29T14:24:37.746Z,80.92
2023-03-29T14:25:37.747Z,80.00
2023-03-29T14:26:37.724Z,79.74
2023-03-29T14:27:37.703Z,78.41
2023-03-29T14:28:37.725Z,78.52
2023-03-29T14:29:37.748Z,79.43
2023-03-29T14:30:37.697Z,80.35
2023-03-29T14:31:37.764Z,79.13
2023-03-29T14:32:37.719Z,80.55
2023-03-29T14:33:37.629Z,78.52
2023-03-29T14:34:37.632Z,79.02
2023-03-29T14:35:37.730Z,80.55
2023-03-29T14:36:37.681Z,80.24
2023-03-29T14:37:37.593Z,80.24
2023-03-29T14:38:37.597Z,79.74
2023-03-29T14:39:37.595Z,79.84
2023-03-29T14:40:37.588Z,79.94
2023-03-29T14:41:37.769Z,80.51
2023-03-29T14:42:37.537Z,79.70
2023-03-29T14:43:37.561Z,80.00
2023-03-29T14:44:37.547Z,78.48
2023-03-29T14:45:37.624Z,78.17
2023-03-29T14:46:37.795Z,78.55
2023-03-29T14:47:37.505Z,77.33
2023-03-29T14:48:37.505Z,76.68
2023-03-29T14:49:37.461Z,77.49
2023-03-29T14:50:37.457Z,76.07
2023-03-29T14:51:37.463Z,77.52
2023-03-29T14:52:37.444Z,74.98
2023-03-29T14:53:37.420Z,75.05
2023-03-29T14:54:37.483Z,76.03
2023-03-29T14:55:37.394Z,74.14
2023-03-29T14:56:37.424Z,75.82
2023-03-29T14:57:37.374Z,76.64
2023-03-29T14:58:37.365Z,75.08
2023-03-29T14:59:37.358Z,75.08
2023-03-29T15:00:37.360Z,73.70
2023-03-29T15:01:37.409Z,75.32
2023-03-29T15:02:37.459Z,73.90
2023-03-29T15:03:37.446Z,74.41
2023-03-29T15:04:37.342Z,75.12
2023-03-29T15:05:37.298Z,76.33
2023-03-29T15:06:37.318Z,74.41
2023-03-29T15:07:37.301Z,74.14
2023-03-29T15:08:37.275Z,73.73
2023-03-29T15:09:37.248Z,74.85
2023-03-29T15:10:37.269Z,75.52
2023-03-29T15:11:37.867Z,75.56
2023-03-29T15:12:37.237Z,75.35
2023-03-29T15:13:37.195Z,76.78
2023-03-29T15:14:37.202Z,75.86
2023-03-29T15:15:37.260Z,74.04
2023-03-29T15:16:37.215Z,76.87
2023-03-29T15:17:50.365Z,74.85
2023-03-29T15:18:37.191Z,74.14
2023-03-29T15:19:37.138Z,75.15
2023-03-29T15:20:37.160Z,75.35
2023-03-29T15:21:37.122Z,75.56
2023-03-29T15:22:37.126Z,76.40
2023-03-29T15:23:37.201Z,75.90
2023-03-29T15:24:37.116Z,74.85
2023-03-29T15:25:37.098Z,75.46
2023-03-29T15:26:37.075Z,75.19
2023-03-29T15:27:37.049Z,76.17
2023-03-29T15:28:37.054Z,75.76
2023-03-29T15:29:37.066Z,75.56
2023-03-29T15:30:37.058Z,75.46
2023-03-29T15:31:37.140Z,77.28
2023-03-29T15:32:37.042Z,77.38
2023-03-29T15:33:37.156Z,76.27
2023-03-29T15:34:36.974Z,76.47
2023-03-29T15:35:36.986Z,74.85
2023-03-29T15:36:36.997Z,74.58
2023-03-29T15:37:36.973Z,76.00
2023-03-29T15:38:43.835Z,75.70
2023-03-29T15:39:36.928Z,74.68
2023-03-29T15:40:36.964Z,76.20
2023-03-29T15:41:36.896Z,75.70
2023-03-29T15:42:36.922Z,76.31
2023-03-29T15:43:36.877Z,76.10
2023-03-29T15:44:37.786Z,76.31
2023-03-29T15:45:36.870Z,75.32
2023-03-29T15:46:36.897Z,76.91
2023-03-29T15:47:36.853Z,76.10
2023-03-29T15:48:41.109Z,75.19
2023-03-29T15:49:37.843Z,75.29
2023-03-29T15:50:36.848Z,75.49
2023-03-29T15:51:36.821Z,76.40
2023-03-29T15:52:36.779Z,75.63
2023-03-29T15:53:36.769Z,76.34
2023-03-29T15:54:36.772Z,75.12
2023-03-29T15:55:36.810Z,75.83
2023-03-29T15:56:36.754Z,76.34
2023-03-29T15:57:36.904Z,76.44
2023-03-29T15:58:36.726Z,76.81
2023-03-29T15:59:36.725Z,77.22
2023-03-29T16:00:36.737Z,76.61
2023-03-29T16:01:36.699Z,76.71
2023-03-29T16:02:36.838Z,76.61
2023-03-29T16:03:36.691Z,76.91
2023-03-29T16:04:36.685Z,76.51
2023-03-29T16:05:36.630Z,76.61
2023-03-29T16:06:36.625Z,75.90
2023-03-29T16:07:36.658Z,76.71
2023-03-29T16:08:36.612Z,77.42
2023-03-29T16:09:36.604Z,77.32
2023-03-29T16:10:36.586Z,76.00
2023-03-29T16:11:36.570Z,76.61
2023-03-29T16:12:36.581Z,75.52
2023-03-29T16:13:36.598Z,76.95
2023-03-29T16:14:36.545Z,77.83
2023-03-29T16:15:36.582Z,76.44
2023-03-29T16:16:36.544Z,76.85
2023-03-29T16:17:36.572Z,77.56
2023-03-29T16:18:36.541Z,77.36
2023-03-29T16:19:36.507Z,76.75
2023-03-29T16:20:36.489Z,77.15
2023-03-29T16:21:36.471Z,77.05
2023-03-29T16:22:36.465Z,78.17
2023-03-29T16:23:36.431Z,76.68
2023-03-29T16:24:36.444Z,76.34
2023-03-29T16:25:36.430Z,77.09
2023-03-29T16:26:36.421Z,77.59
2023-03-29T16:27:36.450Z,77.19
2023-03-29T16:28:36.597Z,78.91
2023-03-29T16:29:36.379Z,79.52
2023-03-29T16:30:36.378Z,79.66
2023-03-29T16:31:36.554Z,79.83
2023-03-29T16:32:36.392Z,79.97
2023-03-29T16:33:36.342Z,82.61
2023-03-29T16:34:36.325Z,78.95
2023-03-29T16:35:36.357Z,79.46
2023-03-29T16:36:36.313Z,81.09
2023-03-29T16:37:36.286Z,81.39
2023-03-29T16:38:36.314Z,80.00
2023-03-29T16:39:36.268Z,78.99
2023-03-29T16:40:36.271Z,79.60
2023-03-29T16:41:36.390Z,81.93
2023-03-29T16:42:36.236Z,81.63
2023-03-29T16:43:36.222Z,80.92
2023-03-29T16:44:36.229Z,81.02
2023-03-29T16:45:36.214Z,81.53
2023-03-29T16:46:36.251Z,80.62
2023-03-29T16:47:36.225Z,82.14
2023-03-29T16:48:36.167Z,81.06
2023-03-29T16:49:37.163Z,80.55
2023-03-29T16:50:36.194Z,81.26
2023-03-29T16:51:36.158Z,79.90
2023-03-29T16:52:36.148Z,80.62